Time;durP1;ratioP1;P1;durP2;ratioP2;P2;SDS_P1;SDS_P2;PMS_P1;PMS_P2;Temp;Humidity;BMP_temperature;BMP_pressure;BME280_temperature;BME280_humidity;BME280_pressure;Samples;Min_cycle;Max_cycle;Signal;HPM_P1;HPM_P2
2024/02/05 00:01:59;;;;;;;;;;;;;;;1.60;100.00;98826.44;109287;1253;65327;-57
2024/02/05 00:04:27;;;;;;;;;;;;;;;1.59;100.00;98826.28;109260;1253;72578;-65
2024/02/05 00:06:55;;;;;;;;;;;;;;;1.57;100.00;98824.93;109226;1254;59615;-58
2024/02/05 00:09:23;;;;;;;;;;;;;;;1.55;100.00;98821.40;109252;1253;58883;-57
2024/02/05 00:11:50;;;;;;;;;;;;;;;1.52;100.00;98814.84;109279;1253;73432;-57
2024/02/05 00:14:18;;;;;;;;;;;;;;;1.52;100.00;98815.88;109241;1253;65621;-57
2024/02/05 00:16:46;;;;;;;;;;;;;;;1.53;100.00;98817.46;109145;1254;71434;-65
2024/02/05 00:19:14;;;;;;;;;;;;;;;1.56;100.00;98805.19;109238;1253;61103;-58
2024/02/05 00:21:41;;;;;;;;;;;;;;;1.60;100.00;98807.31;109238;1253;59881;-57
2024/02/05 00:24:09;;;;;;;;;;;;;;;1.63;100.00;98805.97;109280;1253;74716;-57
2024/02/05 00:26:36;;;;;;;;;;;;;;;1.67;100.00;98806.09;109182;1253;67230;-60
2024/02/05 00:29:07;;;;;;;;;;;;;;;1.71;100.00;98808.73;109226;1253;71668;-58
2024/02/05 00:31:35;;;;;;;;;;;;;;;1.74;100.00;98810.13;109246;1255;59498;-57
2024/02/05 00:34:03;;;;;;;;;;;;;;;1.77;100.00;98805.89;109251;1253;59814;-57
2024/02/05 00:36:31;;;;;;;;;;;;;;;1.81;100.00;98808.00;109221;1253;74744;-58
2024/02/05 00:38:59;;;;;;;;;;;;;;;1.84;100.00;98806.36;109204;1253;67990;-57
2024/02/05 00:41:26;;;;;;;;;;;;;;;1.85;100.00;98803.80;109233;1254;71524;-57
2024/02/05 00:43:54;;;;;;;;;;;;;;;1.86;100.00;98796.05;109239;1253;59421;-57
2024/02/05 00:46:22;;;;;;;;;;;;;;;1.87;100.00;98794.35;109329;1251;59113;-57
2024/02/05 00:48:50;;;;;;;;;;;;;;;1.87;100.00;98788.41;109469;1251;74833;-57
2024/02/05 00:51:18;;;;;;;;;;;;;;;1.87;100.00;98784.98;109455;1251;66928;-56
2024/02/05 00:53:49;;;;;;;;;;;;;;;1.87;100.00;98783.27;109445;1254;72756;-58
2024/02/05 00:56:17;;;;;;;;;;;;;;;1.87;100.00;98779.67;109458;1251;58948;-57
2024/02/05 00:58:45;;;;;;;;;;;;;;;1.87;100.00;98768.73;109431;1254;60545;-57
2024/02/05 01:01:12;;;;;;;;;;;;;;;1.85;100.00;98765.45;109458;1253;74657;-57
2024/02/05 01:03:42;;;;;;;;;;;;;;;1.84;100.00;98773.28;109319;1253;66925;-57
2024/02/05 01:06:10;;;;;;;;;;;;;;;1.83;100.00;98766.74;109112;1254;72717;-57
2024/02/05 01:08:38;;;;;;;;;;;;;;;1.82;100.00;98767.30;109056;1255;59599;-58
2024/02/05 01:11:06;;;;;;;;;;;;;;;1.82;100.00;98762.49;109428;1253;59900;-58
2024/02/05 01:13:33;;;;;;;;;;;;;;;1.81;100.00;98757.67;109523;1251;74719;-60
2024/02/05 01:16:02;;;;;;;;;;;;;;;1.79;100.00;98754.64;109484;1257;66944;-57
2024/02/05 01:18:30;;;;;;;;;;;;;;;1.77;100.00;98754.23;109508;1254;71399;-58
2024/02/05 01:20:58;;;;;;;;;;;;;;;1.75;100.00;98750.13;109437;1255;60846;-58
2024/02/05 01:23:26;;;;;;;;;;;;;;;1.74;100.00;98747.31;109487;1251;59384;-57
2024/02/05 01:25:54;;;;;;;;;;;;;;;1.73;100.00;98742.82;109476;1251;73504;-57
2024/02/05 01:28:21;;;;;;;;;;;;;;;1.73;100.00;98738.55;109517;1251;65634;-57
2024/02/05 01:30:49;;;;;;;;;;;;;;;1.71;100.00;98737.13;109427;1252;72633;-56
2024/02/05 01:33:17;;;;;;;;;;;;;;;1.71;100.00;98733.27;109289;1254;61702;-56
2024/02/05 01:35:44;;;;;;;;;;;;;;;1.72;100.00;98723.21;109213;1254;58929;-60
2024/02/05 01:38:12;;;;;;;;;;;;;;;1.74;100.00;98717.35;109198;1254;73459;-58
2024/02/05 01:40:39;;;;;;;;;;;;;;;1.75;100.00;98715.73;109173;1254;65865;-58
2024/02/05 01:43:07;;;;;;;;;;;;;;;1.76;100.00;98717.33;109163;1253;72775;-58
2024/02/05 01:45:34;;;;;;;;;;;;;;;1.75;100.00;98720.64;109226;1254;58931;-58
2024/02/05 01:48:03;;;;;;;;;;;;;;;1.76;100.00;98720.23;109251;1252;59883;-57
2024/02/05 01:50:30;;;;;;;;;;;;;;;1.76;100.00;98709.82;109256;1253;73457;-58
2024/02/05 01:52:58;;;;;;;;;;;;;;;1.75;100.00;98710.23;109120;1254;65648;-57
2024/02/05 01:55:26;;;;;;;;;;;;;;;1.73;100.00;98707.55;109197;1259;72746;-59
2024/02/05 01:57:54;;;;;;;;;;;;;;;1.70;100.00;98710.21;109161;1254;59017;-58
2024/02/05 02:00:25;;;;;;;;;;;;;;;1.66;100.00;98707.70;109082;1254;59436;-57
2024/02/05 02:02:53;;;;;;;;;;;;;;;1.64;100.00;98702.42;109152;1254;74752;-61
2024/02/05 02:05:20;;;;;;;;;;;;;;;1.64;100.00;98701.36;109165;1254;65661;-57
2024/02/05 02:07:48;;;;;;;;;;;;;;;1.67;100.00;98699.77;109173;1254;72783;-58
2024/02/05 02:10:15;;;;;;;;;;;;;;;1.72;100.00;98703.34;109178;1254;59639;-57
2024/02/05 02:12:43;;;;;;;;;;;;;;;1.74;100.00;98699.00;109177;1254;60019;-64
2024/02/05 02:15:12;;;;;;;;;;;;;;;1.76;100.00;98696.01;109164;1253;75239;-58
2024/02/05 02:17:40;;;;;;;;;;;;;;;1.77;100.00;98694.36;109176;1254;67657;-58
2024/02/05 02:20:08;;;;;;;;;;;;;;;1.77;100.00;98690.80;109165;1254;71455;-57
2024/02/05 02:22:36;;;;;;;;;;;;;;;1.76;100.00;98691.77;109171;1254;59577;-58
2024/02/05 02:25:03;;;;;;;;;;;;;;;1.73;100.00;98692.77;109128;1254;59871;-65
2024/02/05 02:27:31;;;;;;;;;;;;;;;1.68;100.00;98689.86;109183;1254;74721;-60
2024/02/05 02:29:59;;;;;;;;;;;;;;;1.61;100.00;98686.72;109485;1254;66898;-57
2024/02/05 02:32:26;;;;;;;;;;;;;;;1.55;100.00;98688.51;109209;1254;72792;-58
2024/02/05 02:34:54;;;;;;;;;;;;;;;1.51;100.00;98688.77;109434;1253;60976;-57
2024/02/05 02:37:22;;;;;;;;;;;;;;;1.48;100.00;98691.00;109381;1252;59044;-58
2024/02/05 02:40:01;;;;;;;;;;;;;;;1.45;100.00;98690.94;109176;1254;74732;-57
2024/02/05 02:42:30;;;;;;;;;;;;;;;1.41;100.00;98684.48;109122;1260;65616;-57
2024/02/05 02:44:57;;;;;;;;;;;;;;;1.37;100.00;98683.27;109104;1254;72852;-57
2024/02/05 02:47:25;;;;;;;;;;;;;;;1.31;100.00;98681.45;109026;1254;61419;-58
2024/02/05 02:49:52;;;;;;;;;;;;;;;1.26;100.00;98682.36;109193;1253;59416;-57
2024/02/05 02:52:20;;;;;;;;;;;;;;;1.23;100.00;98673.80;109201;1254;74784;-57
2024/02/05 02:54:48;;;;;;;;;;;;;;;1.20;100.00;98676.77;109206;1254;66944;-57
2024/02/05 02:57:15;;;;;;;;;;;;;;;1.18;100.00;98673.39;109124;1254;72728;-64
2024/02/05 02:59:43;;;;;;;;;;;;;;;1.16;100.00;98672.24;109214;1254;61432;-57
2024/02/05 03:02:10;;;;;;;;;;;;;;;1.15;100.00;98669.27;109441;1253;59790;-57
2024/02/05 03:04:38;;;;;;;;;;;;;;;1.16;100.00;98668.17;109450;1254;74724;-56
2024/02/05 03:07:05;;;;;;;;;;;;;;;1.17;100.00;98664.83;109459;1253;67124;-59
2024/02/05 03:09:33;;;;;;;;;;;;;;;1.17;100.00;98658.67;109359;1254;73549;-58
2024/02/05 03:12:01;;;;;;;;;;;;;;;1.17;100.00;98662.27;109424;1253;59673;-57
2024/02/05 03:14:28;;;;;;;;;;;;;;;1.14;100.00;98657.60;109412;1253;59476;-58
2024/02/05 03:16:56;;;;;;;;;;;;;;;1.09;100.00;98656.92;109417;1254;73485;-65
2024/02/05 03:19:23;;;;;;;;;;;;;;;1.03;100.00;98647.53;109420;1254;67444;-57
2024/02/05 03:21:51;;;;;;;;;;;;;;;0.97;100.00;98640.14;109427;1254;71843;-58
2024/02/05 03:24:19;;;;;;;;;;;;;;;0.91;100.00;98636.89;109424;1253;60918;-58
2024/02/05 03:26:46;;;;;;;;;;;;;;;0.87;100.00;98639.04;109465;1254;59931;-60
2024/02/05 03:29:14;;;;;;;;;;;;;;;0.82;100.00;98639.27;109434;1251;74676;-60
2024/02/05 03:31:41;;;;;;;;;;;;;;;0.77;100.00;98627.50;109523;1251;67090;-61
2024/02/05 03:34:09;;;;;;;;;;;;;;;0.73;100.00;98622.55;109453;1251;72907;-57
2024/02/05 03:36:37;;;;;;;;;;;;;;;0.69;100.00;98613.55;109472;1251;60932;-58
2024/02/05 03:39:05;;;;;;;;;;;;;;;0.67;100.00;98607.61;109422;1251;59191;-60
2024/02/05 03:41:32;;;;;;;;;;;;;;;0.69;100.00;98605.92;109331;1251;74694;-58
2024/02/05 03:44:00;;;;;;;;;;;;;;;0.76;100.00;98601.11;109461;1251;66959;-60
2024/02/05 03:46:27;;;;;;;;;;;;;;;0.82;100.00;98594.15;109513;1251;71675;-59
2024/02/05 03:48:55;;;;;;;;;;;;;;;0.86;100.00;98591.67;109292;1253;58986;-66
2024/02/05 03:51:22;;;;;;;;;;;;;;;0.89;100.00;98586.16;109241;1253;60386;-59
2024/02/05 03:53:50;;;;;;;;;;;;;;;0.91;100.00;98579.62;109252;1252;74718;-57
2024/02/05 03:56:18;;;;;;;;;;;;;;;0.94;100.00;98583.09;109277;1254;66787;-58
2024/02/05 03:58:48;;;;;;;;;;;;;;;0.96;100.00;98579.65;109250;1254;71461;-57
2024/02/05 04:01:15;;;;;;;;;;;;;;;0.97;100.00;98578.52;109340;1252;59640;-58
2024/02/05 04:03:43;;;;;;;;;;;;;;;0.99;100.00;98576.72;109319;1254;59867;-57
2024/02/05 04:06:11;;;;;;;;;;;;;;;1.02;100.00;98573.73;109309;1254;73443;-57
2024/02/05 04:08:38;;;;;;;;;;;;;;;1.03;100.00;98573.09;109372;1252;66879;-59
2024/02/05 04:11:06;;;;;;;;;;;;;;;1.02;100.00;98573.69;109265;1254;71437;-57
2024/02/05 04:13:33;;;;;;;;;;;;;;;1.00;100.00;98571.84;109328;1254;59825;-59
2024/02/05 04:16:01;;;;;;;;;;;;;;;0.95;100.00;98566.34;109232;1253;58869;-57
2024/02/05 04:18:29;;;;;;;;;;;;;;;0.90;100.00;98564.67;109275;1253;74830;-57
2024/02/05 04:21:03;;;;;;;;;;;;;;;0.84;100.00;98561.95;109162;1254;66240;-57
2024/02/05 04:23:30;;;;;;;;;;;;;;;0.78;100.00;98557.77;109299;1252;72782;-57
2024/02/05 04:26:00;;;;;;;;;;;;;;;0.72;100.00;98553.73;109268;1254;59677;-57
2024/02/05 04:28:31;;;;;;;;;;;;;;;0.66;100.00;98557.29;109285;1253;59957;-56
2024/02/05 04:30:59;;;;;;;;;;;;;;;0.62;100.00;98554.09;109261;1253;74746;-59
2024/02/05 04:33:26;;;;;;;;;;;;;;;0.61;100.00;98554.77;109252;1253;66092;-59
2024/02/05 04:35:54;;;;;;;;;;;;;;;0.59;100.00;98557.68;109063;1254;72728;-56
2024/02/05 04:38:21;;;;;;;;;;;;;;;0.58;100.00;98551.50;109191;1253;59533;-66
2024/02/05 04:40:49;;;;;;;;;;;;;;;0.60;100.00;98555.94;109197;1253;59916;-58
2024/02/05 04:43:16;;;;;;;;;;;;;;;0.60;100.00;98554.05;109245;1253;75123;-58
2024/02/05 04:45:44;;;;;;;;;;;;;;;0.58;100.00;98542.46;109248;1254;65304;-58
2024/02/05 04:48:14;;;;;;;;;;;;;;;0.56;100.00;98535.50;109230;1253;72721;-59
2024/02/05 04:50:42;;;;;;;;;;;;;;;0.53;100.00;98531.54;109187;1254;59973;-58
2024/02/05 04:53:09;;;;;;;;;;;;;;;0.52;100.00;98529.41;109129;1253;61979;-60
2024/02/05 04:55:41;;;;;;;;;;;;;;;0.53;100.00;98528.98;109191;1253;74746;-59
2024/02/05 04:58:09;;;;;;;;;;;;;;;0.54;100.00;98525.80;109138;1254;65695;-66
2024/02/05 05:00:37;;;;;;;;;;;;;;;0.55;100.00;98522.46;109181;1253;72742;-59
2024/02/05 05:03:04;;;;;;;;;;;;;;;0.58;100.00;98517.85;109165;1253;60121;-58
2024/02/05 05:05:32;;;;;;;;;;;;;;;0.60;100.00;98515.60;109132;1253;59779;-59
2024/02/05 05:08:00;;;;;;;;;;;;;;;0.64;100.00;98511.91;109203;1253;73455;-60
2024/02/05 05:10:27;;;;;;;;;;;;;;;0.69;100.00;98510.49;109128;1253;65628;-59
2024/02/05 05:12:55;;;;;;;;;;;;;;;0.74;100.00;98505.55;109187;1253;72138;-58
2024/02/05 05:15:22;;;;;;;;;;;;;;;0.80;100.00;98508.69;109185;1253;60163;-58
2024/02/05 05:17:50;;;;;;;;;;;;;;;0.90;100.00;98508.11;109142;1253;59886;-59
2024/02/05 05:20:18;;;;;;;;;;;;;;;1.03;100.00;98501.39;109295;1253;74764;-58
2024/02/05 05:22:45;;;;;;;;;;;;;;;1.20;100.00;98496.52;109254;1254;66302;-59
2024/02/05 05:25:13;;;;;;;;;;;;;;;1.40;100.00;98485.75;109261;1253;72743;-60
2024/02/05 05:27:40;;;;;;;;;;;;;;;1.63;100.00;98483.26;109228;1254;59643;-60
2024/02/05 05:30:08;;;;;;;;;;;;;;;1.87;100.00;98478.91;109294;1252;59896;-59
2024/02/05 05:32:35;;;;;;;;;;;;;;;2.08;100.00;98473.48;109268;1253;74853;-67
2024/02/05 05:35:03;;;;;;;;;;;;;;;2.19;100.00;98480.36;109326;1253;65469;-59
2024/02/05 05:37:33;;;;;;;;;;;;;;;2.25;100.00;98484.54;109364;1251;71444;-59
2024/02/05 05:40:00;;;;;;;;;;;;;;;2.27;100.00;98499.27;109344;1252;59644;-59
2024/02/05 05:42:28;;;;;;;;;;;;;;;2.27;100.00;98499.05;109292;1253;59882;-66
2024/02/05 05:44:56;;;;;;;;;;;;;;;2.25;100.00;98498.23;109186;1254;74697;-59
2024/02/05 05:47:23;;;;;;;;;;;;;;;2.24;100.00;98495.32;109171;1253;65714;-59
2024/02/05 05:49:51;;;;;;;;;;;;;;;2.21;100.00;98492.74;109148;1253;71402;-59
2024/02/05 05:52:19;;;;;;;;;;;;;;;2.17;100.00;98488.80;109138;1253;59048;-66
2024/02/05 05:54:47;;;;;;;;;;;;;;;2.13;100.00;98483.52;109181;1253;60450;-59
2024/02/05 05:57:14;;;;;;;;;;;;;;;2.11;100.00;98474.81;109354;1253;73406;-59
2024/02/05 05:59:42;;;;;;;;;;;;;;;2.11;100.00;98470.18;109343;1254;65656;-58
2024/02/05 06:02:09;;;;;;;;;;;;;;;2.14;100.00;98467.98;109355;1252;72749;-59
2024/02/05 06:04:38;;;;;;;;;;;;;;;2.22;100.00;98455.42;109290;1252;61432;-65
2024/02/05 06:07:09;;;;;;;;;;;;;;;2.30;100.00;98445.30;109374;1253;59933;-59
2024/02/05 06:09:36;;;;;;;;;;;;;;;2.33;100.00;98440.56;109288;1252;74728;-58
2024/02/05 06:12:04;;;;;;;;;;;;;;;2.35;100.00;98433.70;109281;1252;66916;-58
2024/02/05 06:14:32;;;;;;;;;;;;;;;2.33;100.00;98425.53;109272;1253;71490;-59
2024/02/05 06:16:59;;;;;;;;;;;;;;;2.31;100.00;98422.50;109182;1254;59273;-58
2024/02/05 06:19:27;;;;;;;;;;;;;;;2.30;100.00;98414.40;109317;1253;59259;-58
2024/02/05 06:21:54;;;;;;;;;;;;;;;2.27;100.00;98408.23;109254;1253;74813;-59
2024/02/05 06:24:22;;;;;;;;;;;;;;;2.26;100.00;98408.65;109247;1252;65826;-58
2024/02/05 06:26:50;;;;;;;;;;;;;;;2.28;100.00;98402.70;109223;1254;72743;-67
2024/02/05 06:29:17;;;;;;;;;;;;;;;2.29;100.00;98397.75;109275;1253;59830;-59
2024/02/05 06:31:45;;;;;;;;;;;;;;;2.31;100.00;98387.05;109260;1253;59476;-58
2024/02/05 06:34:13;;;;;;;;;;;;;;;2.35;100.00;98381.45;109253;1253;74854;-59
2024/02/05 06:36:40;;;;;;;;;;;;;;;2.40;100.00;98384.46;109254;1253;66865;-59
2024/02/05 06:39:10;;;;;;;;;;;;;;;2.45;100.00;98377.91;109243;1253;72748;-61
2024/02/05 06:41:38;;;;;;;;;;;;;;;2.49;100.00;98372.27;109271;1254;60859;-58
2024/02/05 06:44:06;;;;;;;;;;;;;;;2.54;100.00;98361.41;109253;1253;59023;-58
2024/02/05 06:46:33;;;;;;;;;;;;;;;2.59;100.00;98356.73;109282;1253;74752;-59
2024/02/05 06:49:01;;;;;;;;;;;;;;;2.62;100.00;98353.61;109246;1253;66985;-65
2024/02/05 06:51:29;;;;;;;;;;;;;;;2.61;100.00;98355.05;109270;1253;71496;-60
2024/02/05 06:53:56;;;;;;;;;;;;;;;2.61;100.00;98349.38;109252;1253;60930;-58
2024/02/05 06:56:23;;;;;;;;;;;;;;;2.61;100.00;98340.41;109273;1253;59497;-59
2024/02/05 06:58:51;;;;;;;;;;;;;;;2.61;100.00;98340.32;109226;1253;73466;-66
2024/02/05 07:01:19;;;;;;;;;;;;;;;2.60;100.00;98331.06;109326;1253;66790;-58
2024/02/05 07:03:47;;;;;;;;;;;;;;;2.61;100.00;98326.81;109289;1253;72793;-59
2024/02/05 07:06:14;;;;;;;;;;;;;;;2.60;100.00;98320.70;109273;1253;60031;-59
2024/02/05 07:08:42;;;;;;;;;;;;;;;2.60;100.00;98318.81;109291;1253;59276;-58
2024/02/05 07:11:09;;;;;;;;;;;;;;;2.59;100.00;98308.48;109231;1253;75629;-61
2024/02/05 07:13:38;;;;;;;;;;;;;;;2.55;100.00;98303.12;109354;1253;67216;-60
2024/02/05 07:16:06;;;;;;;;;;;;;;;2.51;100.00;98305.00;109275;1253;71489;-59
2024/02/05 07:18:34;;;;;;;;;;;;;;;2.47;100.00;98306.98;109248;1253;60989;-60
2024/02/05 07:21:04;;;;;;;;;;;;;;;2.43;100.00;98296.09;109296;1253;59918;-61
2024/02/05 07:23:32;;;;;;;;;;;;;;;2.37;100.00;98294.34;109269;1253;73443;-63
2024/02/05 07:26:00;;;;;;;;;;;;;;;2.28;100.00;98288.10;109326;1253;65634;-63
2024/02/05 07:28:27;;;;;;;;;;;;;;;2.19;100.00;98281.14;109292;1253;71702;-64
2024/02/05 07:30:55;;;;;;;;;;;;;;;2.12;100.00;98282.43;109218;1253;61124;-65
2024/02/05 07:33:22;;;;;;;;;;;;;;;2.08;100.00;98273.16;109258;1252;60835;-65
2024/02/05 07:35:50;;;;;;;;;;;;;;;2.06;100.00;98265.83;109279;1253;76435;-65
2024/02/05 07:38:18;;;;;;;;;;;;;;;2.07;100.00;98260.89;109289;1253;69314;-66
2024/02/05 07:40:46;;;;;;;;;;;;;;;2.10;100.00;98256.95;109301;1253;74800;-65
2024/02/05 07:43:14;;;;;;;;;;;;;;;2.14;100.00;98251.73;109231;1253;61984;-65
2024/02/05 07:45:41;;;;;;;;;;;;;;;2.16;100.00;98251.10;109242;1253;59077;-65
2024/02/05 07:48:09;;;;;;;;;;;;;;;2.20;100.00;98245.55;109282;1253;75753;-64
2024/02/05 07:50:37;;;;;;;;;;;;;;;2.23;100.00;98245.70;109269;1253;68734;-63
2024/02/05 07:53:06;;;;;;;;;;;;;;;2.24;100.00;98243.23;109288;1252;71409;-63
2024/02/05 07:55:33;;;;;;;;;;;;;;;2.20;100.00;98238.52;109188;1253;59700;-66
2024/02/05 07:58:01;;;;;;;;;;;;;;;2.16;100.00;98242.06;109259;1253;61756;-64
2024/02/05 08:00:29;;;;;;;;;;;;;;;2.12;100.00;98241.11;109294;1253;76851;-65
2024/02/05 08:02:57;;;;;;;;;;;;;;;2.11;100.00;98242.64;109306;1253;66931;-65
2024/02/05 08:05:24;;;;;;;;;;;;;;;2.12;100.00;98233.47;109280;1253;71455;-65
2024/02/05 08:07:52;;;;;;;;;;;;;;;2.14;100.00;98226.63;109241;1253;61100;-64
2024/02/05 08:10:20;;;;;;;;;;;;;;;2.20;100.00;98221.91;109296;1253;61973;-63
2024/02/05 08:12:47;;;;;;;;;;;;;;;2.26;100.00;98218.46;109269;1252;73461;-64
2024/02/05 08:15:15;;;;;;;;;;;;;;;2.31;100.00;98217.33;109286;1253;67425;-63
2024/02/05 08:17:43;;;;;;;;;;;;;;;2.37;100.00;98219.35;109259;1255;70849;-66
2024/02/05 08:20:10;;;;;;;;;;;;;;;2.43;100.00;98217.15;109242;1253;59636;-62
2024/02/05 08:22:38;;;;;;;;;;;;;;;2.51;100.00;98212.30;109274;1253;59893;-65
2024/02/05 08:25:06;;;;;;;;;;;;;;;2.61;100.00;98212.89;109311;1253;74743;-65
2024/02/05 08:27:34;;;;;;;;;;;;;;;2.72;100.00;98209.71;109308;1253;65987;-65
2024/02/05 08:30:02;;;;;;;;;;;;;;;2.81;100.00;98206.64;109267;1253;72384;-64
2024/02/05 08:32:30;;;;;;;;;;;;;;;2.90;100.00;98204.12;109254;1253;61024;-65
2024/02/05 08:34:57;;;;;;;;;;;;;;;3.00;100.00;98208.80;109275;1253;61167;-64
2024/02/05 08:37:25;;;;;;;;;;;;;;;3.11;100.00;98201.80;109282;1253;75668;-65
2024/02/05 08:39:56;;;;;;;;;;;;;;;3.24;100.00;98193.11;109304;1253;67546;-65
2024/02/05 08:42:23;;;;;;;;;;;;;;;3.33;100.00;98189.98;109259;1254;75803;-65
2024/02/05 08:44:59;;;;;;;;;;;;;;;3.41;100.00;98180.40;109258;1253;62367;-63
2024/02/05 08:47:31;;;;;;;;;;;;;;;3.46;100.00;98175.59;109099;1254;59900;-67
2024/02/05 08:49:59;;;;;;;;;;;;;;;3.48;100.00;98173.08;109422;1253;74649;-65
2024/02/05 08:52:27;;;;;;;;;;;;;;;3.50;100.00;98174.27;109370;1254;68736;-65
2024/02/05 08:54:55;;;;;;;;;;;;;;;3.49;100.00;98164.91;109269;1253;74951;-65
2024/02/05 08:57:22;;;;;;;;;;;;;;;3.47;100.00;98164.77;109244;1256;60927;-66
2024/02/05 08:59:50;;;;;;;;;;;;;;;3.47;100.00;98172.59;109220;1254;60950;-65
2024/02/05 09:02:18;;;;;;;;;;;;;;;3.46;100.00;98169.69;109316;1253;74692;-64
2024/02/05 09:04:47;;;;;;;;;;;;;;;3.47;100.00;98166.98;109390;1253;68103;-66
2024/02/05 09:07:15;;;;;;;;;;;;;;;3.55;100.00;98158.13;109315;1254;72132;-65
2024/02/05 09:09:42;;;;;;;;;;;;;;;3.66;100.00;98154.71;109200;1253;62909;-67
2024/02/05 09:12:10;;;;;;;;;;;;;;;3.72;100.00;98155.48;109341;1254;59877;-65
2024/02/05 09:14:38;;;;;;;;;;;;;;;3.75;100.00;98147.74;109287;1254;74772;-66
2024/02/05 09:17:05;;;;;;;;;;;;;;;3.74;100.00;98145.48;109353;1254;66183;-66
2024/02/05 09:19:34;;;;;;;;;;;;;;;3.72;100.00;98142.10;109292;1254;74769;-66
2024/02/05 09:22:02;;;;;;;;;;;;;;;3.72;100.00;98134.05;109253;1253;63000;-65
2024/02/05 09:24:30;;;;;;;;;;;;;;;3.74;100.00;98135.04;109184;1254;62112;-66
2024/02/05 09:26:57;;;;;;;;;;;;;;;3.78;100.00;98133.99;109269;1254;76762;-66
2024/02/05 09:29:25;;;;;;;;;;;;;;;3.84;100.00;98132.72;109326;1253;67143;-66
2024/02/05 09:31:53;;;;;;;;;;;;;;;3.94;100.00;98130.33;109370;1251;74577;-68
2024/02/05 09:34:21;;;;;;;;;;;;;;;4.03;100.00;98126.17;109352;1251;61067;-65
2024/02/05 09:36:49;;;;;;;;;;;;;;;4.09;100.00;98127.42;109203;1251;62247;-65
2024/02/05 09:39:17;;;;;;;;;;;;;;;4.15;100.00;98124.51;109365;1251;73493;-66
2024/02/05 09:41:45;;;;;;;;;;;;;;;4.22;100.00;98122.41;109447;1251;66204;-66
2024/02/05 09:44:12;;;;;;;;;;;;;;;4.26;100.00;98114.41;109415;1251;73214;-70
2024/02/05 09:46:40;;;;;;;;;;;;;;;4.29;100.00;98110.58;109436;1251;62922;-65
2024/02/05 09:49:08;;;;;;;;;;;;;;;4.34;100.00;98114.05;109395;1251;62016;-65
2024/02/05 09:51:38;;;;;;;;;;;;;;;4.39;100.00;98114.12;109320;1251;76069;-65
2024/02/05 09:54:06;;;;;;;;;;;;;;;4.44;100.00;98110.17;109439;1251;69296;-66
2024/02/05 09:56:48;;;;;;;;;;;;;;;4.46;100.00;98107.55;109359;1251;74840;-66
2024/02/05 09:59:16;;;;;;;;;;;;;;;4.44;100.00;98103.63;109248;1251;63263;-66
2024/02/05 10:01:43;;;;;;;;;;;;;;;4.44;100.00;98103.98;109447;1251;59670;-67
2024/02/05 10:04:12;;;;;;;;;;;;;;;4.42;100.00;98104.05;109347;1251;73521;-67
2024/02/05 10:06:42;;;;;;;;;;;;;;;4.39;100.00;98095.36;109432;1251;67973;-65
2024/02/05 10:09:10;;;;;;;;;;;;;;;4.40;100.00;98092.77;109176;1251;73388;-66
2024/02/05 10:11:43;;;;;;;;;;;;;;;4.39;100.00;98087.58;109437;1251;62046;-65
2024/02/05 10:14:11;;;;;;;;;;;;;;;4.40;100.00;98076.98;109421;1251;63161;-66
2024/02/05 10:16:43;;;;;;;;;;;;;;;4.44;100.00;98071.15;109442;1251;73492;-65
2024/02/05 10:19:10;;;;;;;;;;;;;;;4.50;100.00;98080.41;109474;1251;68925;-66
2024/02/05 10:21:38;;;;;;;;;;;;;;;4.57;100.00;98083.54;109405;1251;74675;-65
2024/02/05 10:24:11;;;;;;;;;;;;;;;4.66;100.00;98080.97;109382;1251;59653;-66
2024/02/05 10:26:39;;;;;;;;;;;;;;;4.76;100.00;98086.84;109450;1251;61768;-65
2024/02/05 10:29:13;;;;;;;;;;;;;;;4.83;100.00;98089.86;109454;1251;76725;-64
2024/02/05 10:31:50;;;;;;;;;;;;;;;4.87;100.00;98091.02;109355;1251;69128;-66
2024/02/05 10:34:18;;;;;;;;;;;;;;;4.87;100.00;98077.84;109435;1251;74795;-65
2024/02/05 10:36:47;;;;;;;;;;;;;;;4.87;100.00;98080.17;109448;1251;63873;-65
2024/02/05 10:39:25;;;;;;;;;;;;;;;4.92;100.00;98072.98;109427;1251;61005;-65
2024/02/05 10:41:54;;;;;;;;;;;;;;;4.97;100.00;98062.41;109282;1251;77545;-63
2024/02/05 10:44:22;;;;;;;;;;;;;;;5.03;100.00;98060.02;109415;1251;68730;-64
2024/02/05 10:47:11;;;;;;;;;;;;;;;5.09;100.00;98044.91;109431;1251;74785;-65
2024/02/05 10:49:39;;;;;;;;;;;;;;;5.17;100.00;98044.15;109417;1251;63856;-63
2024/02/05 10:52:07;;;;;;;;;;;;;;;5.19;100.00;98037.50;109455;1251;61387;-63
2024/02/05 10:54:41;;;;;;;;;;;;;;;5.15;100.00;98031.43;109230;1253;75033;-63
2024/02/05 10:57:09;;;;;;;;;;;;;;;5.09;100.00;98023.46;109103;1252;68904;-65
2024/02/05 10:59:37;;;;;;;;;;;;;;;5.04;100.00;98021.53;109233;1253;71639;-63
2024/02/05 11:02:10;;;;;;;;;;;;;;;5.00;100.00;98022.06;109202;1253;62590;-63
2024/02/05 11:04:38;;;;;;;;;;;;;;;4.95;100.00;98018.68;109082;1253;61768;-62
2024/02/05 11:07:06;;;;;;;;;;;;;;;4.91;100.00;98013.41;109214;1253;76811;-66
2024/02/05 11:09:36;;;;;;;;;;;;;;;4.88;100.00;98007.58;109239;1253;69276;-62
2024/02/05 11:12:03;;;;;;;;;;;;;;;4.84;100.00;98010.92;109259;1253;74946;-63
2024/02/05 11:14:33;;;;;;;;;;;;;;;4.77;100.00;98003.54;109227;1253;63137;-63
2024/02/05 11:17:01;;;;;;;;;;;;;;;4.76;100.00;97998.50;109229;1253;61914;-66
2024/02/05 11:19:30;;;;;;;;;;;;;;;4.76;100.00;97995.52;109231;1252;75060;-63
2024/02/05 11:21:58;;;;;;;;;;;;;;;4.80;100.00;97989.92;109297;1253;68397;-64
2024/02/05 11:24:31;;;;;;;;;;;;;;;4.88;100.00;97983.91;109122;1253;205242;-63
2024/02/05 11:26:59;;;;;;;;;;;;;;;4.97;100.00;97979.88;109222;1253;62371;-64
2024/02/05 11:29:32;;;;;;;;;;;;;;;5.08;100.00;97969.73;109222;1252;61977;-64
2024/02/05 11:32:00;;;;;;;;;;;;;;;5.16;100.00;97968.45;109276;1253;75637;-64
2024/02/05 11:34:34;;;;;;;;;;;;;;;5.16;100.00;97966.48;109313;1252;69941;-62
2024/02/05 11:37:08;;;;;;;;;;;;;;;5.18;100.00;97964.73;109241;1253;73539;-67
2024/02/05 11:39:37;;;;;;;;;;;;;;;5.24;100.00;97958.51;109382;1255;62991;-63
2024/02/05 11:42:05;;;;;;;;;;;;;;;5.26;100.00;97948.31;109375;1252;59845;-63
2024/02/05 11:44:33;;;;;;;;;;;;;;;5.29;100.00;97946.55;109447;1252;76809;-62
2024/02/05 11:47:01;;;;;;;;;;;;;;;5.29;100.00;97945.24;109365;1253;68006;-66
2024/02/05 11:49:36;;;;;;;;;;;;;;;5.27;100.00;97947.69;109403;1253;73795;-62
2024/02/05 11:52:04;;;;;;;;;;;;;;;5.28;100.00;97940.37;109337;1252;59641;-62
2024/02/05 11:54:31;;;;;;;;;;;;;;;5.30;100.00;97940.63;109419;1252;60899;-62
2024/02/05 11:56:59;;;;;;;;;;;;;;;5.31;100.00;97932.85;109340;1252;78164;-65
2024/02/05 11:59:27;;;;;;;;;;;;;;;5.31;100.00;97933.87;109387;1253;67559;-63
2024/02/05 12:01:54;;;;;;;;;;;;;;;5.30;100.00;97925.73;109388;1252;74925;-62
2024/02/05 12:04:22;;;;;;;;;;;;;;;5.32;100.00;97923.81;109258;1253;62155;-64
2024/02/05 12:06:49;;;;;;;;;;;;;;;5.31;100.00;97921.16;109227;1252;62558;-62
2024/02/05 12:09:17;;;;;;;;;;;;;;;5.31;100.00;97919.14;109333;1253;74607;-60
2024/02/05 12:11:45;;;;;;;;;;;;;;;5.30;100.00;97914.53;109399;1252;69358;-60
2024/02/05 12:14:13;;;;;;;;;;;;;;;5.31;100.00;97906.02;109394;1252;73463;-60
2024/02/05 12:16:41;;;;;;;;;;;;;;;5.31;100.00;97902.52;109336;1252;63635;-60
2024/02/05 12:19:18;;;;;;;;;;;;;;;5.32;100.00;97902.83;109364;1253;61951;-61
2024/02/05 12:21:46;;;;;;;;;;;;;;;5.31;100.00;97897.11;109393;1252;77236;-61
2024/02/05 12:24:13;;;;;;;;;;;;;;;5.29;100.00;97897.12;109267;1252;68784;-61
2024/02/05 12:26:41;;;;;;;;;;;;;;;5.29;100.00;97898.08;109472;1252;72863;-62
2024/02/05 12:29:09;;;;;;;;;;;;;;;5.24;100.00;97894.36;109343;1253;58981;-68
2024/02/05 12:31:36;;;;;;;;;;;;;;;5.18;100.00;97893.21;109375;1253;63591;-65
2024/02/05 12:34:04;;;;;;;;;;;;;;;5.09;100.00;97884.98;109143;1253;76062;-65
2024/02/05 12:36:37;;;;;;;;;;;;;;;5.02;100.00;97886.77;109450;1253;69174;-65
2024/02/05 12:39:05;;;;;;;;;;;;;;;4.98;100.00;97882.96;109317;1253;73876;-67
2024/02/05 12:41:33;;;;;;;;;;;;;;;4.94;100.00;97874.05;109384;1252;61589;-65